sensor_id;sensor_type;location;lat;lon;timestamp;P1;durP1;ratioP1;P2;durP2;ratioP2
43744;SDS011;29359;53.048;8.732;2023-07-13T00:00:24;3.58;;;2.40;;
43744;SDS011;29359;53.048;8.732;2023-07-13T00:02:27;4.30;;;2.50;;
43744;SDS011;29359;53.048;8.732;2023-07-13T00:04:30;4.85;;;2.30;;
43744;SDS011;29359;53.048;8.732;2023-07-13T00:06:34;8.30;;;2.33;;
43744;SDS011;29359;53.048;8.732;2023-07-13T00:08:37;4.97;;;2.88;;
43744;SDS011;29359;53.048;8.732;2023-07-13T00:10:40;2.53;;;2.10;;
43744;SDS011;29359;53.048;8.732;2023-07-13T00:12:44;6.45;;;2.65;;
43744;SDS011;29359;53.048;8.732;2023-07-13T00:14:47;6.55;;;2.35;;
43744;SDS011;29359;53.048;8.732;2023-07-13T00:16:52;5.70;;;2.65;;
43744;SDS011;29359;53.048;8.732;2023-07-13T00:18:55;4.47;;;2.67;;
43744;SDS011;29359;53.048;8.732;2023-07-13T00:20:58;7.65;;;2.88;;
43744;SDS011;29359;53.048;8.732;2023-07-13T00:23:06;5.07;;;2.38;;
43744;SDS011;29359;53.048;8.732;2023-07-13T00:25:10;5.18;;;2.63;;
43744;SDS011;29359;53.048;8.732;2023-07-13T00:27:16;5.43;;;2.72;;
43744;SDS011;29359;53.048;8.732;2023-07-13T00:29:19;5.55;;;2.58;;
43744;SDS011;29359;53.048;8.732;2023-07-13T00:31:22;5.63;;;2.65;;
43744;SDS011;29359;53.048;8.732;2023-07-13T00:33:27;3.40;;;2.63;;
43744;SDS011;29359;53.048;8.732;2023-07-13T00:35:30;3.65;;;2.38;;
43744;SDS011;29359;53.048;8.732;2023-07-13T00:37:33;4.93;;;2.67;;
43744;SDS011;29359;53.048;8.732;2023-07-13T00:39:37;7.32;;;2.70;;
43744;SDS011;29359;53.048;8.732;2023-07-13T00:41:40;6.35;;;2.97;;
43744;SDS011;29359;53.048;8.732;2023-07-13T00:43:44;4.75;;;2.88;;
43744;SDS011;29359;53.048;8.732;2023-07-13T00:48:27;3.25;;;2.95;;
43744;SDS011;29359;53.048;8.732;2023-07-13T00:50:33;7.13;;;2.63;;
43744;SDS011;29359;53.048;8.732;2023-07-13T00:52:36;11.23;;;3.10;;
43744;SDS011;29359;53.048;8.732;2023-07-13T00:54:43;5.50;;;3.05;;
43744;SDS011;29359;53.048;8.732;2023-07-13T00:56:49;5.22;;;2.95;;
43744;SDS011;29359;53.048;8.732;2023-07-13T00:58:54;3.45;;;2.83;;
43744;SDS011;29359;53.048;8.732;2023-07-13T01:00:59;4.03;;;2.50;;
43744;SDS011;29359;53.048;8.732;2023-07-13T01:03:02;3.17;;;2.70;;
43744;SDS011;29359;53.048;8.732;2023-07-13T01:05:09;8.60;;;3.20;;
43744;SDS011;29359;53.048;8.732;2023-07-13T01:07:13;5.47;;;3.33;;
43744;SDS011;29359;53.048;8.732;2023-07-13T01:09:16;5.15;;;2.90;;
43744;SDS011;29359;53.048;8.732;2023-07-13T01:11:21;5.28;;;3.25;;
43744;SDS011;29359;53.048;8.732;2023-07-13T01:13:23;6.68;;;3.22;;
43744;SDS011;29359;53.048;8.732;2023-07-13T01:15:36;4.60;;;3.10;;
43744;SDS011;29359;53.048;8.732;2023-07-13T01:17:41;6.75;;;3.00;;
43744;SDS011;29359;53.048;8.732;2023-07-13T01:19:45;4.50;;;3.22;;
43744;SDS011;29359;53.048;8.732;2023-07-13T01:21:51;7.72;;;3.63;;
43744;SDS011;29359;53.048;8.732;2023-07-13T01:23:54;10.63;;;3.22;;
43744;SDS011;29359;53.048;8.732;2023-07-13T01:25:58;6.70;;;2.70;;
43744;SDS011;29359;53.048;8.732;2023-07-13T01:28:01;6.65;;;3.58;;
43744;SDS011;29359;53.048;8.732;2023-07-13T01:30:05;5.35;;;3.03;;
43744;SDS011;29359;53.048;8.732;2023-07-13T01:32:09;6.93;;;3.38;;
43744;SDS011;29359;53.048;8.732;2023-07-13T01:34:14;4.13;;;2.97;;
43744;SDS011;29359;53.048;8.732;2023-07-13T01:36:17;4.90;;;3.38;;
43744;SDS011;29359;53.048;8.732;2023-07-13T01:38:24;7.35;;;3.25;;
43744;SDS011;29359;53.048;8.732;2023-07-13T01:40:27;3.72;;;3.00;;
43744;SDS011;29359;53.048;8.732;2023-07-13T01:42:30;8.18;;;3.15;;
43744;SDS011;29359;53.048;8.732;2023-07-13T01:44:33;6.57;;;3.75;;
43744;SDS011;29359;53.048;8.732;2023-07-13T01:46:36;8.38;;;3.42;;
43744;SDS011;29359;53.048;8.732;2023-07-13T01:48:39;5.85;;;3.30;;
43744;SDS011;29359;53.048;8.732;2023-07-13T01:50:42;9.88;;;4.13;;
43744;SDS011;29359;53.048;8.732;2023-07-13T01:52:45;6.82;;;3.47;;
43744;SDS011;29359;53.048;8.732;2023-07-13T01:54:49;12.52;;;3.80;;
43744;SDS011;29359;53.048;8.732;2023-07-13T01:56:52;4.05;;;3.60;;
43744;SDS011;29359;53.048;8.732;2023-07-13T01:58:54;13.02;;;3.50;;
43744;SDS011;29359;53.048;8.732;2023-07-13T02:00:58;9.35;;;3.35;;
43744;SDS011;29359;53.048;8.732;2023-07-13T02:03:01;8.57;;;3.15;;
43744;SDS011;29359;53.048;8.732;2023-07-13T02:05:04;6.93;;;3.60;;
43744;SDS011;29359;53.048;8.732;2023-07-13T02:07:07;13.48;;;4.68;;
43744;SDS011;29359;53.048;8.732;2023-07-13T02:09:09;4.90;;;3.35;;
43744;SDS011;29359;53.048;8.732;2023-07-13T02:11:14;7.43;;;3.03;;
43744;SDS011;29359;53.048;8.732;2023-07-13T02:13:16;4.65;;;3.25;;
43744;SDS011;29359;53.048;8.732;2023-07-13T02:15:19;8.18;;;3.50;;
43744;SDS011;29359;53.048;8.732;2023-07-13T02:17:22;7.93;;;3.22;;
43744;SDS011;29359;53.048;8.732;2023-07-13T02:19:25;11.88;;;3.65;;
43744;SDS011;29359;53.048;8.732;2023-07-13T02:21:28;9.20;;;4.22;;
43744;SDS011;29359;53.048;8.732;2023-07-13T02:23:31;9.00;;;4.05;;
43744;SDS011;29359;53.048;8.732;2023-07-13T02:25:34;5.72;;;3.88;;
43744;SDS011;29359;53.048;8.732;2023-07-13T02:27:38;8.32;;;3.88;;
43744;SDS011;29359;53.048;8.732;2023-07-13T02:29:41;10.30;;;3.60;;
43744;SDS011;29359;53.048;8.732;2023-07-13T02:31:44;10.57;;;3.90;;
43744;SDS011;29359;53.048;8.732;2023-07-13T02:33:47;6.88;;;3.92;;
43744;SDS011;29359;53.048;8.732;2023-07-13T02:35:49;8.05;;;4.22;;
43744;SDS011;29359;53.048;8.732;2023-07-13T02:37:53;6.57;;;3.28;;
43744;SDS011;29359;53.048;8.732;2023-07-13T02:39:56;10.40;;;3.72;;
43744;SDS011;29359;53.048;8.732;2023-07-13T02:41:59;11.30;;;3.72;;
43744;SDS011;29359;53.048;8.732;2023-07-13T02:44:03;8.43;;;3.55;;
43744;SDS011;29359;53.048;8.732;2023-07-13T02:46:06;10.57;;;3.45;;
43744;SDS011;29359;53.048;8.732;2023-07-13T02:48:10;13.93;;;3.70;;
43744;SDS011;29359;53.048;8.732;2023-07-13T02:50:12;12.43;;;3.67;;
43744;SDS011;29359;53.048;8.732;2023-07-13T02:52:15;9.88;;;3.35;;
43744;SDS011;29359;53.048;8.732;2023-07-13T02:54:18;11.27;;;3.47;;
43744;SDS011;29359;53.048;8.732;2023-07-13T02:56:22;8.60;;;3.20;;
43744;SDS011;29359;53.048;8.732;2023-07-13T02:58:26;7.45;;;3.22;;
43744;SDS011;29359;53.048;8.732;2023-07-13T03:00:31;8.85;;;3.08;;
43744;SDS011;29359;53.048;8.732;2023-07-13T03:02:34;13.40;;;3.30;;
43744;SDS011;29359;53.048;8.732;2023-07-13T03:04:37;9.15;;;3.42;;
43744;SDS011;29359;53.048;8.732;2023-07-13T03:06:40;9.40;;;3.70;;
43744;SDS011;29359;53.048;8.732;2023-07-13T03:08:43;13.75;;;3.67;;
43744;SDS011;29359;53.048;8.732;2023-07-13T03:10:47;7.97;;;3.10;;
43744;SDS011;29359;53.048;8.732;2023-07-13T03:12:50;14.15;;;3.25;;
43744;SDS011;29359;53.048;8.732;2023-07-13T03:14:53;8.68;;;2.65;;
43744;SDS011;29359;53.048;8.732;2023-07-13T03:16:57;9.75;;;2.95;;
43744;SDS011;29359;53.048;8.732;2023-07-13T03:19:00;6.00;;;2.70;;
43744;SDS011;29359;53.048;8.732;2023-07-13T03:21:03;12.82;;;3.10;;
43744;SDS011;29359;53.048;8.732;2023-07-13T03:23:07;11.55;;;2.72;;
43744;SDS011;29359;53.048;8.732;2023-07-13T03:25:10;12.13;;;3.35;;
43744;SDS011;29359;53.048;8.732;2023-07-13T03:27:13;10.27;;;3.03;;
43744;SDS011;29359;53.048;8.732;2023-07-13T03:29:15;12.32;;;2.65;;
43744;SDS011;29359;53.048;8.732;2023-07-13T03:31:19;11.52;;;3.40;;
43744;SDS011;29359;53.048;8.732;2023-07-13T03:33:24;9.65;;;2.95;;
43744;SDS011;29359;53.048;8.732;2023-07-13T03:35:26;12.82;;;2.60;;
43744;SDS011;29359;53.048;8.732;2023-07-13T03:37:29;18.38;;;3.03;;
43744;SDS011;29359;53.048;8.732;2023-07-13T03:39:32;8.43;;;2.92;;
43744;SDS011;29359;53.048;8.732;2023-07-13T03:41:35;13.05;;;2.75;;
43744;SDS011;29359;53.048;8.732;2023-07-13T03:43:38;7.82;;;2.47;;
43744;SDS011;29359;53.048;8.732;2023-07-13T03:45:40;13.55;;;2.75;;
43744;SDS011;29359;53.048;8.732;2023-07-13T03:47:43;13.82;;;2.28;;
43744;SDS011;29359;53.048;8.732;2023-07-13T03:49:47;6.22;;;2.47;;
43744;SDS011;29359;53.048;8.732;2023-07-13T03:51:49;20.05;;;3.25;;
43744;SDS011;29359;53.048;8.732;2023-07-13T03:53:54;12.45;;;2.30;;
43744;SDS011;29359;53.048;8.732;2023-07-13T03:55:57;17.00;;;2.30;;
43744;SDS011;29359;53.048;8.732;2023-07-13T03:57:59;10.70;;;2.55;;
43744;SDS011;29359;53.048;8.732;2023-07-13T04:00:03;15.10;;;2.42;;
43744;SDS011;29359;53.048;8.732;2023-07-13T04:02:07;8.15;;;2.30;;
43744;SDS011;29359;53.048;8.732;2023-07-13T04:04:09;16.55;;;2.58;;
43744;SDS011;29359;53.048;8.732;2023-07-13T04:06:14;9.57;;;2.05;;
43744;SDS011;29359;53.048;8.732;2023-07-13T04:08:22;12.57;;;2.10;;
43744;SDS011;29359;53.048;8.732;2023-07-13T04:10:25;9.98;;;2.17;;
43744;SDS011;29359;53.048;8.732;2023-07-13T04:12:27;15.68;;;2.15;;
43744;SDS011;29359;53.048;8.732;2023-07-13T04:14:31;12.90;;;2.17;;
43744;SDS011;29359;53.048;8.732;2023-07-13T04:16:34;11.20;;;2.40;;
43744;SDS011;29359;53.048;8.732;2023-07-13T04:18:37;8.38;;;2.00;;
43744;SDS011;29359;53.048;8.732;2023-07-13T04:20:40;9.82;;;2.20;;
43744;SDS011;29359;53.048;8.732;2023-07-13T04:22:44;8.30;;;1.83;;
43744;SDS011;29359;53.048;8.732;2023-07-13T04:24:47;17.83;;;1.92;;
43744;SDS011;29359;53.048;8.732;2023-07-13T04:26:50;7.75;;;1.95;;
43744;SDS011;29359;53.048;8.732;2023-07-13T04:28:52;11.55;;;1.98;;
43744;SDS011;29359;53.048;8.732;2023-07-13T04:30:55;8.23;;;1.90;;
43744;SDS011;29359;53.048;8.732;2023-07-13T04:32:57;9.85;;;1.60;;
43744;SDS011;29359;53.048;8.732;2023-07-13T04:35:00;11.45;;;2.47;;
43744;SDS011;29359;53.048;8.732;2023-07-13T04:37:03;10.25;;;2.13;;
43744;SDS011;29359;53.048;8.732;2023-07-13T04:39:08;10.23;;;2.40;;
43744;SDS011;29359;53.048;8.732;2023-07-13T04:41:13;11.00;;;2.05;;
43744;SDS011;29359;53.048;8.732;2023-07-13T04:43:16;13.13;;;2.00;;
43744;SDS011;29359;53.048;8.732;2023-07-13T04:45:19;14.10;;;2.40;;
43744;SDS011;29359;53.048;8.732;2023-07-13T04:47:21;16.45;;;2.30;;
43744;SDS011;29359;53.048;8.732;2023-07-13T04:49:24;8.40;;;2.40;;
43744;SDS011;29359;53.048;8.732;2023-07-13T04:51:27;5.50;;;1.92;;
43744;SDS011;29359;53.048;8.732;2023-07-13T04:53:30;8.60;;;1.83;;
43744;SDS011;29359;53.048;8.732;2023-07-13T04:55:35;16.98;;;3.03;;
43744;SDS011;29359;53.048;8.732;2023-07-13T04:57:38;16.38;;;2.22;;
43744;SDS011;29359;53.048;8.732;2023-07-13T04:59:41;11.75;;;2.22;;
43744;SDS011;29359;53.048;8.732;2023-07-13T05:01:44;13.43;;;2.53;;
43744;SDS011;29359;53.048;8.732;2023-07-13T05:03:47;12.27;;;1.70;;
43744;SDS011;29359;53.048;8.732;2023-07-13T05:05:56;11.20;;;2.75;;
43744;SDS011;29359;53.048;8.732;2023-07-13T05:08:00;11.88;;;2.17;;
43744;SDS011;29359;53.048;8.732;2023-07-13T05:10:03;9.05;;;1.80;;
43744;SDS011;29359;53.048;8.732;2023-07-13T05:12:08;8.60;;;2.08;;
43744;SDS011;29359;53.048;8.732;2023-07-13T05:14:12;9.95;;;1.92;;
43744;SDS011;29359;53.048;8.732;2023-07-13T05:16:15;7.68;;;1.80;;
43744;SDS011;29359;53.048;8.732;2023-07-13T05:18:18;13.50;;;2.63;;
43744;SDS011;29359;53.048;8.732;2023-07-13T05:20:19;7.82;;;2.58;;
43744;SDS011;29359;53.048;8.732;2023-07-13T05:22:22;8.60;;;2.05;;
43744;SDS011;29359;53.048;8.732;2023-07-13T05:24:25;13.10;;;2.13;;
43744;SDS011;29359;53.048;8.732;2023-07-13T05:26:28;11.93;;;2.30;;
43744;SDS011;29359;53.048;8.732;2023-07-13T05:28:31;9.57;;;2.53;;
43744;SDS011;29359;53.048;8.732;2023-07-13T05:30:35;12.02;;;1.95;;
43744;SDS011;29359;53.048;8.732;2023-07-13T05:32:37;11.85;;;2.08;;
43744;SDS011;29359;53.048;8.732;2023-07-13T05:34:40;10.27;;;1.90;;
43744;SDS011;29359;53.048;8.732;2023-07-13T05:36:43;12.32;;;2.35;;
43744;SDS011;29359;53.048;8.732;2023-07-13T05:38:46;12.13;;;2.30;;
43744;SDS011;29359;53.048;8.732;2023-07-13T05:40:49;9.15;;;2.25;;
43744;SDS011;29359;53.048;8.732;2023-07-13T05:42:52;6.10;;;1.88;;
43744;SDS011;29359;53.048;8.732;2023-07-13T05:44:56;11.77;;;2.55;;
43744;SDS011;29359;53.048;8.732;2023-07-13T05:46:59;13.07;;;2.38;;
43744;SDS011;29359;53.048;8.732;2023-07-13T05:49:02;10.85;;;2.20;;
43744;SDS011;29359;53.048;8.732;2023-07-13T05:51:05;9.20;;;2.00;;
43744;SDS011;29359;53.048;8.732;2023-07-13T05:53:08;7.78;;;1.58;;
43744;SDS011;29359;53.048;8.732;2023-07-13T05:55:11;13.75;;;2.70;;
43744;SDS011;29359;53.048;8.732;2023-07-13T05:57:14;19.65;;;2.80;;
43744;SDS011;29359;53.048;8.732;2023-07-13T05:59:17;15.20;;;2.33;;
43744;SDS011;29359;53.048;8.732;2023-07-13T06:01:22;10.57;;;2.40;;
43744;SDS011;29359;53.048;8.732;2023-07-13T06:03:25;22.30;;;2.45;;
43744;SDS011;29359;53.048;8.732;2023-07-13T06:05:27;12.25;;;2.53;;
43744;SDS011;29359;53.048;8.732;2023-07-13T06:07:30;5.95;;;2.00;;
43744;SDS011;29359;53.048;8.732;2023-07-13T06:09:32;7.30;;;2.10;;
43744;SDS011;29359;53.048;8.732;2023-07-13T06:11:35;9.57;;;2.17;;
43744;SDS011;29359;53.048;8.732;2023-07-13T06:13:38;12.68;;;2.63;;
43744;SDS011;29359;53.048;8.732;2023-07-13T06:15:40;14.35;;;2.45;;
43744;SDS011;29359;53.048;8.732;2023-07-13T06:17:45;22.60;;;2.83;;
43744;SDS011;29359;53.048;8.732;2023-07-13T06:19:48;14.90;;;2.75;;
43744;SDS011;29359;53.048;8.732;2023-07-13T06:21:50;14.45;;;2.95;;
43744;SDS011;29359;53.048;8.732;2023-07-13T06:23:57;11.15;;;2.22;;
43744;SDS011;29359;53.048;8.732;2023-07-13T06:25:59;15.10;;;2.65;;
43744;SDS011;29359;53.048;8.732;2023-07-13T06:28:02;13.38;;;2.33;;
43744;SDS011;29359;53.048;8.732;2023-07-13T06:30:06;13.38;;;2.70;;
43744;SDS011;29359;53.048;8.732;2023-07-13T06:32:09;12.43;;;2.63;;
43744;SDS011;29359;53.048;8.732;2023-07-13T06:34:13;16.13;;;2.42;;
43744;SDS011;29359;53.048;8.732;2023-07-13T06:36:16;10.98;;;2.83;;
43744;SDS011;29359;53.048;8.732;2023-07-13T06:38:19;9.50;;;2.38;;
43744;SDS011;29359;53.048;8.732;2023-07-13T06:40:22;10.38;;;2.22;;
43744;SDS011;29359;53.048;8.732;2023-07-13T06:42:24;9.52;;;2.63;;
43744;SDS011;29359;53.048;8.732;2023-07-13T06:44:27;11.02;;;2.53;;
43744;SDS011;29359;53.048;8.732;2023-07-13T06:46:30;11.13;;;2.22;;
43744;SDS011;29359;53.048;8.732;2023-07-13T06:48:33;9.40;;;2.53;;
43744;SDS011;29359;53.048;8.732;2023-07-13T06:50:36;12.82;;;2.50;;
43744;SDS011;29359;53.048;8.732;2023-07-13T06:52:39;14.70;;;2.33;;
43744;SDS011;29359;53.048;8.732;2023-07-13T06:54:42;8.77;;;2.72;;
43744;SDS011;29359;53.048;8.732;2023-07-13T06:56:45;15.68;;;2.70;;
43744;SDS011;29359;53.048;8.732;2023-07-13T06:58:48;13.50;;;3.10;;
43744;SDS011;29359;53.048;8.732;2023-07-13T07:00:51;13.60;;;2.38;;
43744;SDS011;29359;53.048;8.732;2023-07-13T07:02:55;7.88;;;2.42;;
43744;SDS011;29359;53.048;8.732;2023-07-13T07:04:57;13.68;;;2.95;;
43744;SDS011;29359;53.048;8.732;2023-07-13T07:07:02;15.00;;;2.50;;
43744;SDS011;29359;53.048;8.732;2023-07-13T07:09:05;10.63;;;2.78;;
43744;SDS011;29359;53.048;8.732;2023-07-13T07:11:08;9.07;;;2.13;;
43744;SDS011;29359;53.048;8.732;2023-07-13T07:13:14;7.18;;;1.90;;
43744;SDS011;29359;53.048;8.732;2023-07-13T07:15:17;11.63;;;2.42;;
43744;SDS011;29359;53.048;8.732;2023-07-13T07:17:20;7.13;;;2.03;;
43744;SDS011;29359;53.048;8.732;2023-07-13T07:19:25;10.50;;;1.85;;
43744;SDS011;29359;53.048;8.732;2023-07-13T07:21:28;7.47;;;2.50;;
43744;SDS011;29359;53.048;8.732;2023-07-13T07:23:33;11.60;;;2.40;;
43744;SDS011;29359;53.048;8.732;2023-07-13T07:25:36;9.88;;;2.38;;
43744;SDS011;29359;53.048;8.732;2023-07-13T07:27:43;7.07;;;2.25;;
43744;SDS011;29359;53.048;8.732;2023-07-13T07:29:49;12.40;;;2.60;;
43744;SDS011;29359;53.048;8.732;2023-07-13T07:32:05;9.15;;;2.10;;
43744;SDS011;29359;53.048;8.732;2023-07-13T07:34:18;7.93;;;2.50;;
43744;SDS011;29359;53.048;8.732;2023-07-13T07:36:21;12.15;;;3.10;;
43744;SDS011;29359;53.048;8.732;2023-07-13T07:38:27;12.23;;;2.67;;
43744;SDS011;29359;53.048;8.732;2023-07-13T07:40:31;10.50;;;2.35;;
43744;SDS011;29359;53.048;8.732;2023-07-13T07:42:37;9.35;;;2.42;;
43744;SDS011;29359;53.048;8.732;2023-07-13T07:44:40;14.43;;;3.00;;
43744;SDS011;29359;53.048;8.732;2023-07-13T07:46:43;9.63;;;2.63;;
43744;SDS011;29359;53.048;8.732;2023-07-13T07:48:46;9.23;;;2.17;;
43744;SDS011;29359;53.048;8.732;2023-07-13T07:50:49;14.88;;;2.35;;
43744;SDS011;29359;53.048;8.732;2023-07-13T07:52:52;4.13;;;1.80;;
43744;SDS011;29359;53.048;8.732;2023-07-13T07:54:55;8.63;;;2.17;;
43744;SDS011;29359;53.048;8.732;2023-07-13T07:57:19;14.88;;;2.70;;
43744;SDS011;29359;53.048;8.732;2023-07-13T07:59:25;8.93;;;2.38;;
43744;SDS011;29359;53.048;8.732;2023-07-13T08:01:30;10.65;;;2.50;;
43744;SDS011;29359;53.048;8.732;2023-07-13T08:03:35;8.82;;;1.80;;
43744;SDS011;29359;53.048;8.732;2023-07-13T08:05:41;11.07;;;2.00;;
43744;SDS011;29359;53.048;8.732;2023-07-13T08:07:56;6.18;;;1.73;;
43744;SDS011;29359;53.048;8.732;2023-07-13T08:09:59;9.18;;;2.42;;
43744;SDS011;29359;53.048;8.732;2023-07-13T08:12:02;6.43;;;2.20;;
43744;SDS011;29359;53.048;8.732;2023-07-13T08:14:09;11.02;;;2.35;;
43744;SDS011;29359;53.048;8.732;2023-07-13T08:16:13;10.40;;;2.22;;
43744;SDS011;29359;53.048;8.732;2023-07-13T08:18:16;10.15;;;2.70;;
43744;SDS011;29359;53.048;8.732;2023-07-13T08:20:18;7.82;;;2.30;;
43744;SDS011;29359;53.048;8.732;2023-07-13T08:22:21;7.10;;;2.15;;
43744;SDS011;29359;53.048;8.732;2023-07-13T08:24:24;16.27;;;2.88;;
43744;SDS011;29359;53.048;8.732;2023-07-13T08:26:27;7.30;;;2.10;;
43744;SDS011;29359;53.048;8.732;2023-07-13T08:28:30;7.32;;;2.05;;
43744;SDS011;29359;53.048;8.732;2023-07-13T08:30:36;9.68;;;2.28;;
43744;SDS011;29359;53.048;8.732;2023-07-13T08:32:38;7.15;;;2.05;;
43744;SDS011;29359;53.048;8.732;2023-07-13T08:34:41;4.55;;;2.00;;
43744;SDS011;29359;53.048;8.732;2023-07-13T08:36:44;7.20;;;2.15;;
43744;SDS011;29359;53.048;8.732;2023-07-13T08:38:47;11.10;;;2.30;;
43744;SDS011;29359;53.048;8.732;2023-07-13T08:40:51;6.80;;;2.08;;
43744;SDS011;29359;53.048;8.732;2023-07-13T08:42:57;13.60;;;2.45;;
43744;SDS011;29359;53.048;8.732;2023-07-13T08:45:04;6.07;;;2.35;;
43744;SDS011;29359;53.048;8.732;2023-07-13T08:47:16;6.20;;;2.05;;
43744;SDS011;29359;53.048;8.732;2023-07-13T08:49:21;7.97;;;2.05;;
43744;SDS011;29359;53.048;8.732;2023-07-13T08:51:31;7.18;;;2.22;;
43744;SDS011;29359;53.048;8.732;2023-07-13T08:53:40;9.75;;;2.30;;
43744;SDS011;29359;53.048;8.732;2023-07-13T08:57:56;8.77;;;2.70;;
43744;SDS011;29359;53.048;8.732;2023-07-13T09:00:04;8.48;;;2.15;;
43744;SDS011;29359;53.048;8.732;2023-07-13T09:02:19;6.63;;;1.70;;
43744;SDS011;29359;53.048;8.732;2023-07-13T09:04:27;7.20;;;2.28;;
43744;SDS011;29359;53.048;8.732;2023-07-13T09:06:39;5.40;;;1.77;;
43744;SDS011;29359;53.048;8.732;2023-07-13T09:08:52;5.32;;;2.17;;
43744;SDS011;29359;53.048;8.732;2023-07-13T09:11:08;8.57;;;2.55;;
43744;SDS011;29359;53.048;8.732;2023-07-13T09:13:23;11.18;;;2.22;;
43744;SDS011;29359;53.048;8.732;2023-07-13T09:15:37;6.20;;;2.13;;
43744;SDS011;29359;53.048;8.732;2023-07-13T09:17:46;6.45;;;1.88;;
43744;SDS011;29359;53.048;8.732;2023-07-13T09:19:54;4.22;;;1.80;;
43744;SDS011;29359;53.048;8.732;2023-07-13T09:22:05;5.45;;;1.67;;
43744;SDS011;29359;53.048;8.732;2023-07-13T09:24:27;9.02;;;1.98;;
43744;SDS011;29359;53.048;8.732;2023-07-13T09:26:35;6.00;;;1.55;;
43744;SDS011;29359;53.048;8.732;2023-07-13T09:28:41;6.38;;;2.25;;
43744;SDS011;29359;53.048;8.732;2023-07-13T09:30:46;6.63;;;2.10;;
43744;SDS011;29359;53.048;8.732;2023-07-13T09:32:56;6.85;;;1.60;;
43744;SDS011;29359;53.048;8.732;2023-07-13T09:35:00;5.22;;;1.95;;
43744;SDS011;29359;53.048;8.732;2023-07-13T09:37:03;6.60;;;1.98;;
43744;SDS011;29359;53.048;8.732;2023-07-13T09:39:09;7.80;;;1.77;;
43744;SDS011;29359;53.048;8.732;2023-07-13T09:41:19;5.03;;;1.50;;
43744;SDS011;29359;53.048;8.732;2023-07-13T09:43:29;5.32;;;1.58;;
43744;SDS011;29359;53.048;8.732;2023-07-13T09:45:33;5.43;;;1.48;;
43744;SDS011;29359;53.048;8.732;2023-07-13T09:47:38;3.22;;;1.38;;
43744;SDS011;29359;53.048;8.732;2023-07-13T09:49:43;5.53;;;1.80;;
43744;SDS011;29359;53.048;8.732;2023-07-13T09:51:47;5.65;;;1.83;;
43744;SDS011;29359;53.048;8.732;2023-07-13T09:53:49;6.30;;;1.55;;
43744;SDS011;29359;53.048;8.732;2023-07-13T09:55:52;2.95;;;1.60;;
43744;SDS011;29359;53.048;8.732;2023-07-13T09:57:55;5.25;;;1.23;;
43744;SDS011;29359;53.048;8.732;2023-07-13T09:59:58;4.15;;;1.33;;
43744;SDS011;29359;53.048;8.732;2023-07-13T10:02:04;5.80;;;1.48;;
43744;SDS011;29359;53.048;8.732;2023-07-13T10:04:27;10.10;;;1.55;;
43744;SDS011;29359;53.048;8.732;2023-07-13T10:06:34;3.63;;;1.30;;
43744;SDS011;29359;53.048;8.732;2023-07-13T10:08:38;4.97;;;1.70;;
43744;SDS011;29359;53.048;8.732;2023-07-13T10:10:40;4.25;;;1.48;;
43744;SDS011;29359;53.048;8.732;2023-07-13T10:12:43;6.63;;;1.50;;
43744;SDS011;29359;53.048;8.732;2023-07-13T10:14:46;5.03;;;1.35;;
43744;SDS011;29359;53.048;8.732;2023-07-13T10:16:52;2.40;;;1.27;;
43744;SDS011;29359;53.048;8.732;2023-07-13T10:19:00;5.82;;;1.45;;
43744;SDS011;29359;53.048;8.732;2023-07-13T10:21:11;3.67;;;1.50;;
43744;SDS011;29359;53.048;8.732;2023-07-13T10:23:21;5.22;;;1.30;;
43744;SDS011;29359;53.048;8.732;2023-07-13T10:25:31;3.15;;;1.40;;
43744;SDS011;29359;53.048;8.732;2023-07-13T10:27:35;6.60;;;1.58;;
43744;SDS011;29359;53.048;8.732;2023-07-13T10:29:39;3.55;;;1.50;;
43744;SDS011;29359;53.048;8.732;2023-07-13T10:31:46;6.72;;;1.65;;
43744;SDS011;29359;53.048;8.732;2023-07-13T10:33:49;5.35;;;1.50;;
43744;SDS011;29359;53.048;8.732;2023-07-13T10:35:53;5.15;;;1.38;;
43744;SDS011;29359;53.048;8.732;2023-07-13T10:38:14;8.45;;;1.35;;
43744;SDS011;29359;53.048;8.732;2023-07-13T10:40:22;2.25;;;1.08;;
43744;SDS011;29359;53.048;8.732;2023-07-13T10:42:32;3.45;;;1.00;;
43744;SDS011;29359;53.048;8.732;2023-07-13T10:44:37;2.03;;;1.15;;
43744;SDS011;29359;53.048;8.732;2023-07-13T10:46:40;3.55;;;1.17;;
43744;SDS011;29359;53.048;8.732;2023-07-13T10:48:46;1.77;;;0.68;;
43744;SDS011;29359;53.048;8.732;2023-07-13T10:50:53;2.15;;;0.98;;
43744;SDS011;29359;53.048;8.732;2023-07-13T10:53:01;2.10;;;0.95;;
43744;SDS011;29359;53.048;8.732;2023-07-13T10:55:05;5.57;;;1.00;;
43744;SDS011;29359;53.048;8.732;2023-07-13T10:57:33;2.47;;;0.85;;
43744;SDS011;29359;53.048;8.732;2023-07-13T10:59:46;2.53;;;1.30;;
43744;SDS011;29359;53.048;8.732;2023-07-13T11:01:54;4.20;;;1.20;;
43744;SDS011;29359;53.048;8.732;2023-07-13T11:03:59;4.82;;;1.08;;
43744;SDS011;29359;53.048;8.732;2023-07-13T11:06:07;4.20;;;1.50;;
43744;SDS011;29359;53.048;8.732;2023-07-13T11:08:16;3.97;;;1.48;;
43744;SDS011;29359;53.048;8.732;2023-07-13T11:12:56;1.42;;;0.80;;
43744;SDS011;29359;53.048;8.732;2023-07-13T11:15:04;3.90;;;1.27;;
43744;SDS011;29359;53.048;8.732;2023-07-13T11:17:24;1.27;;;0.82;;
43744;SDS011;29359;53.048;8.732;2023-07-13T11:19:38;4.20;;;1.20;;
43744;SDS011;29359;53.048;8.732;2023-07-13T11:24:04;1.73;;;1.15;;
43744;SDS011;29359;53.048;8.732;2023-07-13T11:28:42;4.00;;;1.10;;
43744;SDS011;29359;53.048;8.732;2023-07-13T11:30:46;4.50;;;1.30;;
43744;SDS011;29359;53.048;8.732;2023-07-13T11:32:51;3.97;;;0.98;;
43744;SDS011;29359;53.048;8.732;2023-07-13T11:35:09;1.92;;;0.90;;
43744;SDS011;29359;53.048;8.732;2023-07-13T11:37:16;6.57;;;0.88;;
43744;SDS011;29359;53.048;8.732;2023-07-13T11:39:24;2.33;;;0.70;;
43744;SDS011;29359;53.048;8.732;2023-07-13T11:41:34;1.95;;;0.60;;
43744;SDS011;29359;53.048;8.732;2023-07-13T11:43:39;1.33;;;0.50;;
43744;SDS011;29359;53.048;8.732;2023-07-13T11:45:44;0.85;;;0.55;;
43744;SDS011;29359;53.048;8.732;2023-07-13T11:47:49;1.48;;;0.82;;
43744;SDS011;29359;53.048;8.732;2023-07-13T11:49:53;1.30;;;0.50;;
43744;SDS011;29359;53.048;8.732;2023-07-13T11:51:58;1.17;;;0.70;;
43744;SDS011;29359;53.048;8.732;2023-07-13T11:54:02;1.42;;;0.60;;
43744;SDS011;29359;53.048;8.732;2023-07-13T11:56:08;0.73;;;0.50;;
43744;SDS011;29359;53.048;8.732;2023-07-13T11:58:11;2.47;;;1.08;;
43744;SDS011;29359;53.048;8.732;2023-07-13T12:00:23;1.23;;;0.57;;
43744;SDS011;29359;53.048;8.732;2023-07-13T12:02:31;2.72;;;0.80;;
43744;SDS011;29359;53.048;8.732;2023-07-13T12:04:36;0.70;;;0.68;;
43744;SDS011;29359;53.048;8.732;2023-07-13T12:06:40;2.15;;;0.80;;
43744;SDS011;29359;53.048;8.732;2023-07-13T12:08:44;5.68;;;0.70;;
43744;SDS011;29359;53.048;8.732;2023-07-13T12:10:47;1.10;;;0.82;;
43744;SDS011;29359;53.048;8.732;2023-07-13T12:12:57;1.23;;;0.70;;
43744;SDS011;29359;53.048;8.732;2023-07-13T12:15:05;2.25;;;0.85;;
43744;SDS011;29359;53.048;8.732;2023-07-13T12:17:10;2.95;;;1.27;;
43744;SDS011;29359;53.048;8.732;2023-07-13T12:19:27;1.15;;;0.63;;
43744;SDS011;29359;53.048;8.732;2023-07-13T12:21:31;1.05;;;0.68;;
43744;SDS011;29359;53.048;8.732;2023-07-13T12:23:35;1.15;;;0.63;;
43744;SDS011;29359;53.048;8.732;2023-07-13T12:25:38;1.00;;;0.70;;
43744;SDS011;29359;53.048;8.732;2023-07-13T12:27:41;1.65;;;0.63;;
43744;SDS011;29359;53.048;8.732;2023-07-13T12:29:49;1.02;;;0.52;;
43744;SDS011;29359;53.048;8.732;2023-07-13T12:31:55;1.92;;;0.80;;
43744;SDS011;29359;53.048;8.732;2023-07-13T12:33:58;0.80;;;0.70;;
43744;SDS011;29359;53.048;8.732;2023-07-13T12:36:03;0.77;;;0.70;;
43744;SDS011;29359;53.048;8.732;2023-07-13T12:38:09;1.00;;;0.57;;
43744;SDS011;29359;53.048;8.732;2023-07-13T12:40:13;1.13;;;0.60;;